createdAt,value
2022-08-14T00:00:00.567Z,21.9
2022-08-14T00:01:00.374Z,21.9
2022-08-14T00:02:03.042Z,21.9
2022-08-14T00:03:00.245Z,21.9
2022-08-14T00:04:00.316Z,21.9
2022-08-14T00:05:00.627Z,21.7
2022-08-14T00:06:01.722Z,21.7
2022-08-14T00:07:00.449Z,21.7
2022-08-14T00:08:00.338Z,21.7
2022-08-14T00:09:00.230Z,21.7
2022-08-14T00:10:50.493Z,21.5
2022-08-14T00:11:00.278Z,21.5
2022-08-14T00:12:00.277Z,21.5
2022-08-14T00:13:00.516Z,21.5
2022-08-14T00:14:01.425Z,21.3
2022-08-14T00:15:02.881Z,21.3
2022-08-14T00:16:01.384Z,21.3
2022-08-14T00:17:01.300Z,21.3
2022-08-14T00:18:01.631Z,21.3
2022-08-14T00:19:18.813Z,21.7
2022-08-14T00:20:00.489Z,21.7
2022-08-14T00:21:00.483Z,21.7
2022-08-14T00:22:00.288Z,21.7
2022-08-14T00:23:16.335Z,21.7
2022-08-14T00:24:01.683Z,21.7
2022-08-14T00:25:00.393Z,21.7
2022-08-14T00:26:06.692Z,21.7
2022-08-14T00:27:02.247Z,21.7
2022-08-14T00:28:01.546Z,21.7
2022-08-14T00:29:00.310Z,21.2
2022-08-14T00:30:00.342Z,21.2
2022-08-14T00:31:00.783Z,21.2
2022-08-14T00:32:00.284Z,21.2
2022-08-14T00:33:00.384Z,21.2
2022-08-14T00:34:36.859Z,20.1
2022-08-14T00:35:00.358Z,20.1
2022-08-14T00:36:35.991Z,20.1
2022-08-14T00:37:00.559Z,20.1
2022-08-14T00:38:00.704Z,20.1
2022-08-14T00:39:00.287Z,20.9
2022-08-14T00:40:01.021Z,20.9
2022-08-14T00:41:00.401Z,20.9
2022-08-14T00:42:01.172Z,20.9
2022-08-14T00:43:00.852Z,20.9
2022-08-14T00:44:00.310Z,19.6
2022-08-14T00:45:00.404Z,19.6
2022-08-14T00:46:05.281Z,19.6
2022-08-14T00:47:01.064Z,19.6
2022-08-14T00:48:00.582Z,19.6
2022-08-14T00:49:00.275Z,20.2
2022-08-14T00:50:01.819Z,20.2
2022-08-14T00:51:00.414Z,20.2
2022-08-14T00:52:00.282Z,20.2
2022-08-14T00:53:00.455Z,20.2
2022-08-14T00:54:00.488Z,19.5
2022-08-14T00:55:01.367Z,19.5
2022-08-14T00:56:01.053Z,19.5
2022-08-14T00:57:00.239Z,19.5
2022-08-14T00:58:00.554Z,19.5
2022-08-14T00:59:00.309Z,18.8
2022-08-14T01:00:04.999Z,18.8
2022-08-14T01:01:05.874Z,18.8
2022-08-14T01:02:01.319Z,18.8
2022-08-14T01:03:00.574Z,18.8
2022-08-14T01:04:01.002Z,18.5
2022-08-14T01:05:00.280Z,18.5
2022-08-14T01:06:00.762Z,18.5
2022-08-14T01:07:00.493Z,18.5
2022-08-14T01:08:01.123Z,18.5
2022-08-14T01:09:00.300Z,18.5
2022-08-14T01:10:03.195Z,18.5
2022-08-14T01:11:01.039Z,18.5
2022-08-14T01:12:03.416Z,18.5
2022-08-14T01:13:00.575Z,18.5
2022-08-14T01:14:01.499Z,18.3
2022-08-14T01:15:02.509Z,18.3
2022-08-14T01:16:03.112Z,18.3
2022-08-14T01:17:00.300Z,18.3
2022-08-14T01:18:00.421Z,18.3
2022-08-14T01:19:02.052Z,18.8
2022-08-14T01:20:00.406Z,18.8
2022-08-14T01:21:00.606Z,18.8
2022-08-14T01:22:00.429Z,18.8
2022-08-14T01:23:00.243Z,18.8
2022-08-14T01:24:01.942Z,19.2
2022-08-14T01:25:00.397Z,19.2
2022-08-14T01:26:00.825Z,19.2
2022-08-14T01:27:00.840Z,19.2
2022-08-14T01:28:00.318Z,19.2
2022-08-14T01:29:00.804Z,17.7
2022-08-14T01:30:03.610Z,17.7
2022-08-14T01:31:00.383Z,17.7
2022-08-14T01:32:00.422Z,17.7
2022-08-14T01:33:00.370Z,17.7
2022-08-14T01:35:18.127Z,17.8
2022-08-14T01:35:20.189Z,17.8
2022-08-14T01:36:05.089Z,17.8
2022-08-14T01:37:00.237Z,17.8
2022-08-14T01:38:00.259Z,17.8
2022-08-14T01:39:00.393Z,18.3
2022-08-14T01:40:00.329Z,18.3
2022-08-14T01:41:01.734Z,18.3
2022-08-14T01:42:00.251Z,18.3
2022-08-14T01:43:00.352Z,18.3
2022-08-14T01:44:03.205Z,18.5
2022-08-14T01:45:00.342Z,18.5
2022-08-14T01:46:06.313Z,18.5
2022-08-14T01:47:05.823Z,18.5
2022-08-14T01:48:03.237Z,18.5
2022-08-14T01:49:03.938Z,17.4
2022-08-14T01:50:01.841Z,17.4
2022-08-14T01:51:00.472Z,17.4
2022-08-14T01:52:00.242Z,17.4
2022-08-14T01:53:00.680Z,17.4
2022-08-14T01:54:05.211Z,18.1
2022-08-14T01:55:00.247Z,18.1
2022-08-14T01:56:03.996Z,18.1
2022-08-14T01:57:00.498Z,18.1
2022-08-14T01:58:18.827Z,18.1
2022-08-14T01:59:00.728Z,18.5
2022-08-14T02:00:00.379Z,18.5
2022-08-14T02:01:00.327Z,18.5
2022-08-14T02:02:04.158Z,18.5
2022-08-14T02:03:00.228Z,18.5
2022-08-14T02:04:00.914Z,17.8
2022-08-14T02:05:01.387Z,17.8
2022-08-14T02:06:04.126Z,17.8
2022-08-14T02:07:01.088Z,17.8
2022-08-14T02:08:08.560Z,17.8
2022-08-14T02:09:00.220Z,18.1
2022-08-14T02:10:00.410Z,18.1
2022-08-14T02:11:00.584Z,18.1
2022-08-14T02:12:02.772Z,18.1
2022-08-14T02:13:00.385Z,18.1
2022-08-14T02:14:07.396Z,18.2
2022-08-14T02:15:01.442Z,18.2
2022-08-14T02:16:00.252Z,18.2
2022-08-14T02:17:01.018Z,18.2
2022-08-14T02:18:00.319Z,18.2
2022-08-14T02:19:04.511Z,17.4
2022-08-14T02:20:00.605Z,17.4
2022-08-14T02:21:00.616Z,17.4
2022-08-14T02:22:03.175Z,17.4
2022-08-14T02:23:00.738Z,17.4
2022-08-14T02:24:03.070Z,18.5
2022-08-14T02:25:00.513Z,18.5
2022-08-14T02:26:24.797Z,18.5
2022-08-14T02:28:23.172Z,18.5
2022-08-14T02:28:23.505Z,18.5
2022-08-14T02:29:05.125Z,18.0
2022-08-14T02:30:02.517Z,18.0
2022-08-14T02:31:00.317Z,18.0
2022-08-14T02:32:00.358Z,18.0
2022-08-14T02:33:00.231Z,18.0
2022-08-14T02:34:14.719Z,17.8
2022-08-14T02:35:00.265Z,17.8
2022-08-14T02:37:02.942Z,17.8
2022-08-14T02:37:06.602Z,17.8
2022-08-14T02:38:00.903Z,17.8
2022-08-14T02:39:00.279Z,17.7
2022-08-14T02:40:00.486Z,17.7
2022-08-14T02:41:00.987Z,17.7
2022-08-14T02:42:00.321Z,17.7
2022-08-14T02:43:02.492Z,17.7
2022-08-14T02:44:01.578Z,18.0
2022-08-14T02:45:00.284Z,18.0
2022-08-14T02:46:00.273Z,18.0
2022-08-14T02:47:01.423Z,18.0
2022-08-14T02:48:02.360Z,18.0
2022-08-14T02:49:03.723Z,17.4
2022-08-14T02:50:00.364Z,17.4
2022-08-14T02:51:01.116Z,17.4
2022-08-14T02:52:00.466Z,17.4
2022-08-14T02:53:02.862Z,17.4
2022-08-14T02:54:00.888Z,18.7
2022-08-14T02:55:00.327Z,18.7
2022-08-14T02:56:03.167Z,18.7
2022-08-14T02:57:16.202Z,18.7
2022-08-14T02:58:03.184Z,18.7
2022-08-14T02:59:00.544Z,18.0
2022-08-14T03:00:00.292Z,18.0
2022-08-14T03:01:01.235Z,18.0
2022-08-14T03:02:02.085Z,18.0
2022-08-14T03:03:01.659Z,18.0
2022-08-14T03:04:00.610Z,18.5
2022-08-14T03:05:00.333Z,18.5
2022-08-14T03:06:00.446Z,18.5
2022-08-14T03:07:07.108Z,18.5
2022-08-14T03:08:04.534Z,18.5
2022-08-14T03:09:00.242Z,17.8
2022-08-14T03:10:25.984Z,17.8
2022-08-14T03:11:01.077Z,17.8
2022-08-14T03:12:00.244Z,17.8
2022-08-14T03:13:00.682Z,17.8
2022-08-14T03:14:00.365Z,19.0
2022-08-14T03:15:03.401Z,19.0
2022-08-14T03:16:09.047Z,19.0
2022-08-14T03:17:00.247Z,19.0
2022-08-14T03:18:00.261Z,19.0
2022-08-14T03:19:02.547Z,19.2
2022-08-14T03:20:00.532Z,19.2
2022-08-14T03:21:04.161Z,19.2
2022-08-14T03:22:00.328Z,19.2
2022-08-14T03:23:00.452Z,19.2
2022-08-14T03:24:00.388Z,19.0
2022-08-14T03:25:00.268Z,19.0
2022-08-14T03:26:01.121Z,19.0
2022-08-14T03:27:00.242Z,19.0
2022-08-14T03:28:02.950Z,19.0
2022-08-14T03:29:01.306Z,19.0
2022-08-14T03:30:00.322Z,19.0
2022-08-14T03:31:00.403Z,19.0
2022-08-14T03:32:00.237Z,19.0
2022-08-14T03:33:00.776Z,19.0
2022-08-14T03:34:00.551Z,19.7
2022-08-14T03:35:00.242Z,19.7
2022-08-14T03:37:28.932Z,19.7
2022-08-14T03:39:08.552Z,19.7
2022-08-14T03:39:12.398Z,20.1
2022-08-14T03:39:15.410Z,19.7
2022-08-14T03:40:00.723Z,20.1
2022-08-14T03:41:00.244Z,20.1
2022-08-14T03:42:01.742Z,20.1
2022-08-14T03:43:00.257Z,20.1
2022-08-14T03:45:20.234Z,20.3
2022-08-14T03:45:27.468Z,20.3
2022-08-14T03:46:00.226Z,20.3
2022-08-14T03:47:00.295Z,20.3
2022-08-14T03:48:11.056Z,20.3
2022-08-14T03:49:01.289Z,20.4
2022-08-14T03:50:00.248Z,20.4
2022-08-14T03:51:01.521Z,20.4
2022-08-14T03:52:01.292Z,20.4
2022-08-14T03:53:01.955Z,20.4
2022-08-14T03:54:02.771Z,20.4
2022-08-14T03:55:00.330Z,20.4
2022-08-14T03:56:00.267Z,20.4
2022-08-14T03:57:00.425Z,20.4
2022-08-14T03:58:00.998Z,20.4
2022-08-14T03:59:01.196Z,20.1
2022-08-14T04:00:03.415Z,20.1
2022-08-14T04:01:00.467Z,20.1
2022-08-14T04:02:01.795Z,20.1
2022-08-14T04:03:02.507Z,20.1
2022-08-14T04:04:00.249Z,20.2
2022-08-14T04:05:12.237Z,20.2
2022-08-14T04:06:01.043Z,20.2
2022-08-14T04:07:00.263Z,20.2
2022-08-14T04:08:22.677Z,20.2
2022-08-14T04:09:00.389Z,20.7
2022-08-14T04:10:00.676Z,20.7
2022-08-14T04:11:01.013Z,20.7
2022-08-14T04:12:00.247Z,20.7
2022-08-14T04:13:03.525Z,20.7
2022-08-14T04:14:01.431Z,20.7
2022-08-14T04:15:00.275Z,20.7
2022-08-14T04:16:04.982Z,20.7
2022-08-14T04:17:00.285Z,20.7
2022-08-14T04:18:04.665Z,20.7
2022-08-14T04:19:00.360Z,20.0
2022-08-14T04:20:00.458Z,20.0
2022-08-14T04:21:00.265Z,20.0
2022-08-14T04:22:03.826Z,20.0
2022-08-14T04:23:00.765Z,20.0
2022-08-14T04:24:01.910Z,19.8
2022-08-14T04:25:04.825Z,19.8
2022-08-14T04:26:01.887Z,19.8
2022-08-14T04:27:00.232Z,19.8
2022-08-14T04:28:02.349Z,19.8
2022-08-14T04:29:09.252Z,20.2
2022-08-14T04:30:00.635Z,20.2
2022-08-14T04:31:00.271Z,20.2
2022-08-14T04:33:00.249Z,20.2
2022-08-14T04:33:07.322Z,20.2
2022-08-14T04:34:00.226Z,19.1
2022-08-14T04:35:00.989Z,19.1
2022-08-14T04:36:00.264Z,19.1
2022-08-14T04:37:00.449Z,19.1
2022-08-14T04:38:07.823Z,19.1
2022-08-14T04:39:00.333Z,19.4
2022-08-14T04:40:00.493Z,19.4
2022-08-14T04:41:00.340Z,19.4
2022-08-14T04:42:00.300Z,19.4
2022-08-14T04:43:00.376Z,19.4
2022-08-14T04:44:00.276Z,19.2
2022-08-14T04:45:00.650Z,19.2
2022-08-14T04:46:01.371Z,19.2
2022-08-14T04:47:00.279Z,19.2
2022-08-14T04:48:00.297Z,19.2
2022-08-14T04:49:01.499Z,19.2
2022-08-14T04:50:03.334Z,19.2
2022-08-14T04:51:03.544Z,19.2
2022-08-14T04:52:00.232Z,19.2
2022-08-14T04:53:01.742Z,19.2
2022-08-14T04:54:00.296Z,18.5
2022-08-14T04:55:00.247Z,18.5
2022-08-14T04:56:00.351Z,18.5
2022-08-14T04:57:00.301Z,18.5
2022-08-14T04:58:02.883Z,18.5
2022-08-14T04:59:03.794Z,19.3
2022-08-14T05:00:00.417Z,19.3
2022-08-14T05:01:03.209Z,19.3
2022-08-14T05:02:00.394Z,19.3
2022-08-14T05:03:00.724Z,19.3
2022-08-14T05:04:00.278Z,20.3
2022-08-14T05:05:00.226Z,20.3
2022-08-14T05:06:03.388Z,20.3
2022-08-14T05:07:00.226Z,20.3
2022-08-14T05:08:06.081Z,20.3
2022-08-14T05:09:00.596Z,17.8
2022-08-14T05:10:00.272Z,17.8
2022-08-14T05:11:02.071Z,17.8
2022-08-14T05:12:54.851Z,17.8
2022-08-14T05:13:14.415Z,17.8
2022-08-14T05:14:46.882Z,18.4
2022-08-14T05:15:00.238Z,18.4
2022-08-14T05:16:01.016Z,18.4
2022-08-14T05:17:01.508Z,18.4
2022-08-14T05:18:17.032Z,18.4
2022-08-14T05:19:24.934Z,18.2
2022-08-14T05:21:04.878Z,18.2
2022-08-14T05:21:56.247Z,18.2
2022-08-14T05:22:17.287Z,18.2
2022-08-14T05:23:01.333Z,18.2
2022-08-14T05:24:01.190Z,17.3
2022-08-14T05:25:00.305Z,17.3
2022-08-14T05:26:01.479Z,17.3
2022-08-14T05:27:00.229Z,17.3
2022-08-14T05:28:12.449Z,17.3
2022-08-14T05:29:00.265Z,17.8
2022-08-14T05:30:04.124Z,17.8
2022-08-14T05:31:02.460Z,17.8
2022-08-14T05:32:00.311Z,17.8
2022-08-14T05:33:00.243Z,17.8
2022-08-14T05:34:00.227Z,17.6
2022-08-14T05:35:00.508Z,17.6
2022-08-14T05:36:04.064Z,17.6
2022-08-14T05:37:02.936Z,17.6
2022-08-14T05:38:10.730Z,17.6
2022-08-14T05:39:00.446Z,16.7
2022-08-14T05:40:00.514Z,16.7
2022-08-14T05:41:01.630Z,16.7
2022-08-14T05:42:00.700Z,16.7
2022-08-14T05:43:00.822Z,16.7
2022-08-14T05:44:00.247Z,17.1
2022-08-14T05:45:00.664Z,17.1
2022-08-14T05:46:00.890Z,17.1
2022-08-14T05:47:00.319Z,17.1
2022-08-14T05:48:01.953Z,17.1
2022-08-14T05:49:00.234Z,16.4
2022-08-14T05:50:00.359Z,16.4
2022-08-14T05:51:00.383Z,16.4
2022-08-14T05:52:01.624Z,16.4
2022-08-14T05:53:00.942Z,16.4
2022-08-14T05:54:11.485Z,16.5
2022-08-14T05:55:00.276Z,16.5
2022-08-14T05:56:00.320Z,16.5
2022-08-14T05:57:00.276Z,16.5
2022-08-14T05:58:03.608Z,16.5
2022-08-14T05:59:00.630Z,16.2
2022-08-14T06:00:00.414Z,16.2
2022-08-14T06:01:00.275Z,16.2
2022-08-14T06:02:00.336Z,16.2
2022-08-14T06:03:04.134Z,16.2
2022-08-14T06:04:00.329Z,16.6
2022-08-14T06:05:00.228Z,16.6
2022-08-14T06:06:00.575Z,16.6
2022-08-14T06:07:00.297Z,16.6
2022-08-14T06:08:00.789Z,16.6
2022-08-14T06:09:00.235Z,16.4
2022-08-14T06:10:04.097Z,16.4
2022-08-14T06:11:05.485Z,16.4
2022-08-14T06:12:00.256Z,16.4
2022-08-14T06:13:00.321Z,16.4
2022-08-14T06:14:00.225Z,16.3
2022-08-14T06:15:00.669Z,16.3
2022-08-14T06:16:00.268Z,16.3
2022-08-14T06:17:00.337Z,16.3
2022-08-14T06:18:01.611Z,16.3
2022-08-14T06:19:00.227Z,17.0
2022-08-14T06:20:00.390Z,17.0
2022-08-14T06:21:04.018Z,17.0
2022-08-14T06:22:00.245Z,17.0
2022-08-14T06:23:00.416Z,17.0
2022-08-14T06:24:00.244Z,17.3
2022-08-14T06:25:00.261Z,17.3
2022-08-14T06:26:00.291Z,17.3
2022-08-14T06:27:04.835Z,17.3
2022-08-14T06:28:00.914Z,17.3
2022-08-14T06:29:00.214Z,18.5
2022-08-14T06:30:00.298Z,18.5
2022-08-14T06:31:00.223Z,18.5
2022-08-14T06:32:37.362Z,18.5
2022-08-14T06:33:04.973Z,18.5
2022-08-14T06:35:04.399Z,16.8
2022-08-14T06:35:09.702Z,16.8
2022-08-14T06:36:00.234Z,16.8
2022-08-14T06:37:00.218Z,16.8
2022-08-14T06:38:00.225Z,16.8
2022-08-14T06:39:00.253Z,16.3
2022-08-14T06:40:00.343Z,16.3
2022-08-14T06:41:00.291Z,16.3
2022-08-14T06:42:00.281Z,16.3
2022-08-14T06:43:06.950Z,16.3
2022-08-14T06:44:00.291Z,17.0
2022-08-14T06:45:00.265Z,17.0
2022-08-14T06:46:00.502Z,17.0
2022-08-14T06:47:01.210Z,17.0
2022-08-14T06:48:00.648Z,17.0
2022-08-14T06:49:00.249Z,17.0
2022-08-14T06:50:00.546Z,17.0
2022-08-14T06:51:00.246Z,17.0
2022-08-14T06:52:00.270Z,17.0
2022-08-14T06:53:00.264Z,17.0
2022-08-14T06:54:00.464Z,17.5
2022-08-14T06:55:00.651Z,17.5
2022-08-14T06:56:02.067Z,17.5
2022-08-14T06:57:00.246Z,17.5
2022-08-14T06:58:00.338Z,17.5
2022-08-14T06:59:00.268Z,17.7
2022-08-14T07:00:00.585Z,17.7
2022-08-14T07:01:00.484Z,17.7
2022-08-14T07:02:00.255Z,17.7
2022-08-14T07:03:00.249Z,17.7
2022-08-14T07:04:00.231Z,16.9
2022-08-14T07:05:00.344Z,16.9
2022-08-14T07:06:00.257Z,16.9
2022-08-14T07:07:00.253Z,16.9
2022-08-14T07:08:00.282Z,16.9
2022-08-14T07:09:00.320Z,22.9
2022-08-14T07:10:00.287Z,22.9
2022-08-14T07:11:01.142Z,22.9
2022-08-14T07:12:00.299Z,22.9
2022-08-14T07:13:03.568Z,22.9
2022-08-14T07:14:00.242Z,18.2
2022-08-14T07:15:01.466Z,18.2
2022-08-14T07:16:05.659Z,18.2
2022-08-14T07:17:00.217Z,18.2
2022-08-14T07:18:00.907Z,18.2
2022-08-14T07:19:00.247Z,17.7
2022-08-14T07:20:00.316Z,17.7
2022-08-14T07:21:02.176Z,17.7
2022-08-14T07:22:00.235Z,17.7
2022-08-14T07:23:08.361Z,17.7
2022-08-14T07:24:00.218Z,18.0
2022-08-14T07:25:00.243Z,18.0
2022-08-14T07:26:01.601Z,18.0
2022-08-14T07:27:00.237Z,18.0
2022-08-14T07:28:07.155Z,18.0
2022-08-14T07:29:00.231Z,19.2
2022-08-14T07:30:02.990Z,19.2
2022-08-14T07:31:04.590Z,19.2
2022-08-14T07:32:00.312Z,19.2
2022-08-14T07:33:00.291Z,19.2
2022-08-14T07:34:00.307Z,18.0
2022-08-14T07:35:00.395Z,18.0
2022-08-14T07:36:03.361Z,18.0
2022-08-14T07:37:00.969Z,18.0
2022-08-14T07:38:00.225Z,18.0
2022-08-14T07:39:00.963Z,18.2
2022-08-14T07:40:01.354Z,18.2
2022-08-14T07:41:00.842Z,18.2
2022-08-14T07:42:00.281Z,18.2
2022-08-14T07:43:00.728Z,18.2
2022-08-14T07:44:22.393Z,17.0
2022-08-14T07:45:00.310Z,17.0
2022-08-14T07:46:00.519Z,17.0
2022-08-14T07:47:00.277Z,17.0
2022-08-14T07:48:00.250Z,17.0
2022-08-14T07:49:00.226Z,17.3
2022-08-14T07:50:06.997Z,17.3
2022-08-14T07:51:03.141Z,17.3
2022-08-14T07:52:00.952Z,17.3
2022-08-14T07:53:00.732Z,17.3
2022-08-14T07:54:00.250Z,17.5
2022-08-14T07:55:00.387Z,17.5
2022-08-14T07:56:21.473Z,17.5
2022-08-14T07:57:00.635Z,17.5
2022-08-14T07:58:00.292Z,17.5
2022-08-14T07:59:00.286Z,17.4
2022-08-14T08:00:00.575Z,17.4
2022-08-14T08:01:00.511Z,17.4
2022-08-14T08:02:03.109Z,17.4
2022-08-14T08:03:00.631Z,17.4
2022-08-14T08:04:03.436Z,16.9
2022-08-14T08:05:01.069Z,16.9
2022-08-14T08:06:01.260Z,16.9
2022-08-14T08:07:00.530Z,16.9
2022-08-14T08:08:01.977Z,16.9
2022-08-14T08:09:03.214Z,17.6
2022-08-14T08:10:05.939Z,17.6
2022-08-14T08:11:03.409Z,17.6
2022-08-14T08:12:05.138Z,17.6
2022-08-14T08:13:05.671Z,17.6
2022-08-14T08:14:03.414Z,17.4
2022-08-14T08:15:05.636Z,17.4
2022-08-14T08:16:00.328Z,17.4
2022-08-14T08:17:00.278Z,17.4
2022-08-14T08:18:01.215Z,17.4
2022-08-14T08:19:05.864Z,17.7
2022-08-14T08:20:00.394Z,17.7
2022-08-14T08:21:00.719Z,17.7
2022-08-14T08:22:00.233Z,17.7
2022-08-14T08:23:06.357Z,17.7
2022-08-14T08:24:00.252Z,15.7
2022-08-14T08:25:00.259Z,15.7
2022-08-14T08:26:00.291Z,15.7
2022-08-14T08:27:00.512Z,15.7
2022-08-14T08:28:03.518Z,15.7
2022-08-14T08:29:00.247Z,15.0
2022-08-14T08:30:03.883Z,15.0
2022-08-14T08:31:04.171Z,15.0
2022-08-14T08:32:01.893Z,15.0
2022-08-14T08:33:00.941Z,15.0
2022-08-14T08:34:03.950Z,15.3
2022-08-14T08:35:00.287Z,15.3
2022-08-14T08:36:03.574Z,15.3
2022-08-14T08:37:05.146Z,15.3
2022-08-14T08:38:14.269Z,15.3
2022-08-14T08:39:15.233Z,14.9
2022-08-14T08:40:03.304Z,14.9
2022-08-14T08:41:00.498Z,14.9
2022-08-14T08:42:00.265Z,14.9
2022-08-14T08:43:02.044Z,14.9
2022-08-14T08:44:05.506Z,16.5
2022-08-14T08:45:00.271Z,16.5
2022-08-14T08:46:03.977Z,16.5
2022-08-14T08:47:03.641Z,16.5
2022-08-14T08:48:01.548Z,16.5
2022-08-14T08:50:00.467Z,15.5
2022-08-14T08:51:01.942Z,15.5
2022-08-14T08:52:01.323Z,15.5
2022-08-14T08:53:02.784Z,15.5
2022-08-14T08:54:05.128Z,16.2
2022-08-14T08:55:00.755Z,16.2
2022-08-14T08:56:01.689Z,16.2
2022-08-14T08:57:00.270Z,16.2
2022-08-14T08:58:04.242Z,16.2
2022-08-14T08:59:00.710Z,14.6
2022-08-14T09:00:00.492Z,14.6
2022-08-14T09:01:00.306Z,14.6
2022-08-14T09:02:10.436Z,14.6
2022-08-14T09:03:05.158Z,14.6
2022-08-14T09:04:01.789Z,14.4
2022-08-14T09:05:02.132Z,14.4
2022-08-14T09:06:02.957Z,14.4
2022-08-14T09:07:10.895Z,14.4
2022-08-14T09:08:30.763Z,14.4
2022-08-14T09:09:00.225Z,15.9
2022-08-14T09:10:00.931Z,15.9
2022-08-14T09:11:19.910Z,15.9
2022-08-14T09:12:01.394Z,15.9
2022-08-14T09:13:00.763Z,15.9
2022-08-14T09:14:00.332Z,14.8
2022-08-14T09:15:03.125Z,14.8
2022-08-14T09:16:01.043Z,14.8
2022-08-14T09:17:00.282Z,14.8
2022-08-14T09:18:00.396Z,14.8
2022-08-14T09:19:01.130Z,15.3
2022-08-14T09:20:02.323Z,15.3
2022-08-14T09:21:00.567Z,15.3
2022-08-14T09:22:01.212Z,15.3
2022-08-14T09:23:00.793Z,15.3
2022-08-14T09:24:29.070Z,14.2
2022-08-14T09:25:00.455Z,14.2
2022-08-14T09:26:01.816Z,14.2
2022-08-14T09:27:00.265Z,14.2
2022-08-14T09:28:01.365Z,14.2
2022-08-14T09:29:01.054Z,14.7
2022-08-14T09:30:00.587Z,14.7
2022-08-14T09:31:01.132Z,14.7
2022-08-14T09:32:03.876Z,14.7
2022-08-14T09:33:02.972Z,14.7
2022-08-14T09:34:26.886Z,14.2
2022-08-14T09:35:20.178Z,14.2
2022-08-14T09:36:00.270Z,14.2
2022-08-14T09:37:10.178Z,14.2
2022-08-14T09:38:19.462Z,14.2
2022-08-14T09:39:23.130Z,13.1
2022-08-14T09:40:20.661Z,13.1
2022-08-14T09:41:10.246Z,13.1
2022-08-14T09:42:33.612Z,13.1
2022-08-14T09:43:13.829Z,13.1
2022-08-14T09:44:20.909Z,13.1
2022-08-14T09:45:08.505Z,13.1
2022-08-14T09:46:06.381Z,13.1
2022-08-14T09:47:01.064Z,13.1
2022-08-14T09:48:00.713Z,13.1
2022-08-14T09:49:04.469Z,11.8
2022-08-14T09:50:00.367Z,11.8
2022-08-14T09:52:33.082Z,11.8
2022-08-14T09:53:02.655Z,11.8
2022-08-14T09:54:19.555Z,12.4
2022-08-14T09:55:00.600Z,12.4
2022-08-14T09:56:00.662Z,12.4
2022-08-14T09:57:00.337Z,12.4
2022-08-14T09:58:19.846Z,12.4
2022-08-14T09:59:10.744Z,12.6
2022-08-14T10:00:09.854Z,12.6
2022-08-14T10:01:08.351Z,12.6
2022-08-14T10:02:00.310Z,12.6
2022-08-14T10:03:00.327Z,12.6
2022-08-14T10:04:00.320Z,13.9
2022-08-14T10:05:03.612Z,13.9
2022-08-14T10:06:09.891Z,13.9
2022-08-14T10:07:00.250Z,13.9
2022-08-14T10:08:02.640Z,13.9
2022-08-14T10:09:00.204Z,14.4
2022-08-14T10:10:02.057Z,14.4
2022-08-14T10:11:02.823Z,14.4
2022-08-14T10:12:00.345Z,14.4
2022-08-14T10:13:02.541Z,14.4
2022-08-14T10:14:12.037Z,15.4
2022-08-14T10:15:00.325Z,15.4
2022-08-14T10:16:00.299Z,15.4
2022-08-14T10:17:00.382Z,15.4
2022-08-14T10:18:08.983Z,15.4
2022-08-14T10:19:05.676Z,16.0
2022-08-14T10:20:00.286Z,16.0
2022-08-14T10:21:00.693Z,16.0
2022-08-14T10:23:12.296Z,16.0
2022-08-14T10:23:15.599Z,16.0
2022-08-14T10:24:00.248Z,16.4
2022-08-14T10:25:09.935Z,16.4
2022-08-14T10:26:05.836Z,16.4
2022-08-14T10:27:01.089Z,16.4
2022-08-14T10:28:00.331Z,16.4
2022-08-14T10:29:19.360Z,16.1
2022-08-14T10:30:00.435Z,16.1
2022-08-14T10:31:00.239Z,16.1
2022-08-14T10:32:00.940Z,16.1
2022-08-14T10:33:00.255Z,16.1
2022-08-14T10:34:02.256Z,18.0
2022-08-14T10:35:06.517Z,18.0
2022-08-14T10:36:00.349Z,18.0
2022-08-14T10:37:04.649Z,18.0
2022-08-14T10:38:00.385Z,18.0
2022-08-14T10:39:04.057Z,19.6
2022-08-14T10:40:10.325Z,19.6
2022-08-14T10:41:14.661Z,19.6
2022-08-14T10:42:18.173Z,19.6
2022-08-14T10:43:00.284Z,19.6
2022-08-14T10:44:21.373Z,18.0
2022-08-14T10:45:00.355Z,18.0
2022-08-14T10:46:21.898Z,18.0
2022-08-14T10:47:39.643Z,18.0
2022-08-14T10:48:08.723Z,18.0
2022-08-14T10:49:01.393Z,18.4
2022-08-14T10:50:00.365Z,18.4
2022-08-14T10:51:00.333Z,18.4
2022-08-14T10:52:03.412Z,18.4
2022-08-14T10:53:02.384Z,18.4
2022-08-14T10:54:26.221Z,18.8
2022-08-14T10:55:07.638Z,18.8
2022-08-14T10:56:03.739Z,18.8
2022-08-14T10:57:12.159Z,18.8
2022-08-14T10:58:00.275Z,18.8
2022-08-14T10:59:04.513Z,17.8
2022-08-14T11:00:11.313Z,17.8
2022-08-14T11:01:01.763Z,17.8
2022-08-14T11:02:00.385Z,17.8
2022-08-14T11:03:02.991Z,17.8
2022-08-14T11:04:01.015Z,20.1
2022-08-14T11:05:05.437Z,20.1
2022-08-14T11:06:10.811Z,20.1
2022-08-14T11:07:00.275Z,20.1
2022-08-14T11:08:00.325Z,20.1
2022-08-14T11:09:10.587Z,16.8
2022-08-14T11:10:04.330Z,16.8
2022-08-14T11:11:02.619Z,16.8
2022-08-14T11:12:33.818Z,16.8
2022-08-14T11:13:00.238Z,16.8
2022-08-14T11:14:00.246Z,17.5
2022-08-14T11:15:02.128Z,17.5
2022-08-14T11:16:00.783Z,17.5
2022-08-14T11:17:01.256Z,17.5
2022-08-14T11:18:01.598Z,17.5
2022-08-14T11:19:02.659Z,15.1
2022-08-14T11:20:04.228Z,15.1
2022-08-14T11:21:00.327Z,15.1
2022-08-14T11:22:00.960Z,15.1
2022-08-14T11:23:00.611Z,15.1
2022-08-14T11:24:01.321Z,15.2
2022-08-14T11:25:06.555Z,15.2
2022-08-14T11:26:01.680Z,15.2
2022-08-14T11:27:01.434Z,15.2
2022-08-14T11:28:00.952Z,15.2
2022-08-14T11:29:02.054Z,15.7
2022-08-14T11:30:50.104Z,15.7
2022-08-14T11:31:03.580Z,15.7
2022-08-14T11:32:01.723Z,15.7
2022-08-14T11:33:00.297Z,15.7
2022-08-14T11:34:00.402Z,14.4
2022-08-14T11:35:00.897Z,14.4
2022-08-14T11:36:02.881Z,14.4
2022-08-14T11:37:20.726Z,14.4
2022-08-14T11:38:02.574Z,14.4
2022-08-14T11:39:00.238Z,16.4
2022-08-14T11:40:00.392Z,16.4
2022-08-14T11:41:00.480Z,16.4
2022-08-14T11:42:00.312Z,16.4
2022-08-14T11:43:02.152Z,16.4
2022-08-14T11:44:00.284Z,18.2
2022-08-14T11:45:04.636Z,18.2
2022-08-14T11:46:03.531Z,18.2
2022-08-14T11:47:05.984Z,18.2
2022-08-14T11:48:13.065Z,18.2
2022-08-14T11:49:04.265Z,18.1
2022-08-14T11:50:13.343Z,18.1
2022-08-14T11:51:00.248Z,18.1
2022-08-14T11:52:00.374Z,18.1
2022-08-14T11:53:02.225Z,18.1
2022-08-14T11:54:02.751Z,18.1
2022-08-14T11:55:00.315Z,18.1
2022-08-14T11:56:06.097Z,18.1
2022-08-14T11:57:00.447Z,18.1
2022-08-14T11:58:03.640Z,18.1
2022-08-14T11:59:00.359Z,15.8
2022-08-14T12:00:03.155Z,15.8
2022-08-14T12:01:03.810Z,15.8
2022-08-14T12:02:36.059Z,15.8
2022-08-14T12:03:04.082Z,15.8
2022-08-14T12:04:08.699Z,16.8
2022-08-14T12:05:00.625Z,16.8
2022-08-14T12:06:29.249Z,16.8
2022-08-14T12:07:00.283Z,16.8
2022-08-14T12:08:05.541Z,16.8
2022-08-14T12:09:00.711Z,14.4
2022-08-14T12:10:00.334Z,14.4
2022-08-14T12:11:00.694Z,14.4
2022-08-14T12:12:14.130Z,14.4
2022-08-14T12:13:11.232Z,14.4
2022-08-14T12:14:07.443Z,13.2
2022-08-14T12:15:00.271Z,13.2
2022-08-14T12:16:06.379Z,13.2
2022-08-14T12:17:04.771Z,13.2
2022-08-14T12:18:00.832Z,13.2
2022-08-14T12:19:00.684Z,12.9
2022-08-14T12:20:05.222Z,12.9
2022-08-14T12:21:15.809Z,12.9
2022-08-14T12:22:00.348Z,12.9
2022-08-14T12:23:01.351Z,12.9
2022-08-14T12:24:03.541Z,12.0
2022-08-14T12:25:01.756Z,12.0
2022-08-14T12:26:31.987Z,12.0
2022-08-14T12:27:00.267Z,12.0
2022-08-14T12:28:09.041Z,12.0
2022-08-14T12:29:10.649Z,12.2
2022-08-14T12:30:00.280Z,12.2
2022-08-14T12:31:10.943Z,12.2
2022-08-14T12:32:01.921Z,12.2
2022-08-14T12:33:02.403Z,12.2
2022-08-14T12:34:04.181Z,12.8
2022-08-14T12:35:00.268Z,12.8
2022-08-14T12:36:05.816Z,12.8
2022-08-14T12:37:02.820Z,12.8
2022-08-14T12:38:00.259Z,12.8
2022-08-14T12:39:02.970Z,10.4
2022-08-14T12:40:10.149Z,10.4
2022-08-14T12:41:00.904Z,10.4
2022-08-14T12:42:01.196Z,10.4
2022-08-14T12:43:01.333Z,10.4
2022-08-14T12:44:05.378Z,10.6
2022-08-14T12:45:04.095Z,10.6
2022-08-14T12:46:00.307Z,10.6
2022-08-14T12:47:02.825Z,10.6
2022-08-14T12:48:21.124Z,10.6
2022-08-14T12:49:08.817Z,11.2
2022-08-14T12:50:00.379Z,11.2
2022-08-14T12:51:00.280Z,11.2
2022-08-14T12:52:02.256Z,11.2
2022-08-14T12:53:13.876Z,11.2
2022-08-14T12:54:26.137Z,11.9
2022-08-14T12:55:06.638Z,11.9
2022-08-14T12:56:21.867Z,11.9
2022-08-14T12:57:04.897Z,11.9
2022-08-14T12:58:01.407Z,11.9
2022-08-14T12:59:01.272Z,14.1
2022-08-14T13:00:22.513Z,14.1
2022-08-14T13:01:16.792Z,14.1
2022-08-14T13:02:06.455Z,14.1
2022-08-14T13:03:00.718Z,14.1
2022-08-14T13:04:08.420Z,13.8
2022-08-14T13:05:01.287Z,13.8
2022-08-14T13:06:01.296Z,13.8
2022-08-14T13:07:02.544Z,13.8
2022-08-14T13:08:04.345Z,13.8
2022-08-14T13:09:01.076Z,12.6
2022-08-14T13:10:47.756Z,12.6
2022-08-14T13:11:02.632Z,12.6
2022-08-14T13:12:32.308Z,12.6
2022-08-14T13:13:13.470Z,12.6
2022-08-14T13:14:02.182Z,15.3
2022-08-14T13:15:02.063Z,15.3
2022-08-14T13:16:01.932Z,15.3
2022-08-14T13:17:00.668Z,15.3
2022-08-14T13:18:01.927Z,15.3
2022-08-14T13:19:01.596Z,18.2
2022-08-14T13:20:00.835Z,18.2